Time;durP1;ratioP1;P1;durP2;ratioP2;P2;SDS_P1;SDS_P2;PMS_P1;PMS_P2;Temp;Humidity;BMP_temperature;BMP_pressure;BME280_temperature;BME280_humidity;BME280_pressure;Samples;Min_cycle;Max_cycle;Signal;HPM_P1;HPM_P2
2023/09/09 00:01:01;;;;;;;5.75;5.15;;;22.50;86.80;;;;;;5072617;28;20128;-31
2023/09/09 00:03:28;;;;;;;5.68;5.05;;;23.00;87.60;;;;;;5072124;28;20127;-30
2023/09/09 00:05:55;;;;;;;6.28;5.60;;;;;;;;;;5072049;28;20131;-33
2023/09/09 00:08:21;;;;;;;5.60;5.00;;;21.90;86.30;;;;;;5068304;28;20132;-31
2023/09/09 00:10:49;;;;;;;5.50;4.90;;;;;;;;;;5068340;28;20048;-31
2023/09/09 00:13:15;;;;;;;7.05;5.13;;;23.00;81.60;;;;;;5071698;28;20046;-31
2023/09/09 00:15:42;;;;;;;5.57;4.93;;;22.70;87.00;;;;;;5072430;28;20127;-30
2023/09/09 00:18:10;;;;;;;5.40;4.43;;;23.50;79.50;;;;;;5071954;28;20136;-31
2023/09/09 00:20:39;;;;;;;7.13;5.07;;;23.50;77.60;;;;;;5071766;28;20135;-32
2023/09/09 00:25:48;;;;;;;5.32;4.78;;;23.00;74.20;;;;;;5869571;22;20080;-31
2023/09/09 00:28:15;;;;;;;4.90;4.40;;;22.70;78.70;;;;;;5030735;28;20128;-32
2023/09/09 00:30:42;;;;;;;5.28;4.78;;;22.80;71.10;;;;;;5031784;28;20406;-31
2023/09/09 00:33:10;;;;;;;5.82;4.95;;;23.10;87.10;;;;;;5031854;28;20080;-32
2023/09/09 00:35:38;;;;;;;6.13;4.63;;;;;;;;;;5029753;28;20128;-32
2023/09/09 00:38:05;;;;;;;6.90;4.57;;;22.30;86.30;;;;;;5029331;28;20061;-32
2023/09/09 00:40:32;;;;;;;5.20;4.60;;;22.40;87.30;;;;;;5031498;28;20120;-31
2023/09/09 00:42:59;;;;;;;4.97;4.47;;;22.80;81.60;;;;;;5034330;28;20049;-31
2023/09/09 00:45:26;;;;;;;6.22;5.20;;;22.70;86.50;;;;;;5051341;28;20073;-31
2023/09/09 00:47:53;;;;;;;5.43;4.57;;;;;;;;;;5051890;28;20544;-31
2023/09/09 00:50:21;;;;;;;5.78;4.75;;;22.70;86.60;;;;;;5052058;28;20475;-31
2023/09/09 00:52:47;;;;;;;4.95;4.30;;;23.20;87.60;;;;;;5051826;28;20128;-31
2023/09/09 00:55:14;;;;;;;6.25;4.90;;;23.80;87.10;;;;;;5048681;28;20130;-31
2023/09/09 00:57:41;;;;;;;6.80;4.50;;;;;;;;;;5031274;28;20128;-31
2023/09/09 01:00:10;;;;;;;5.82;5.07;;;22.30;87.20;;;;;;5031740;28;20557;-31
2023/09/09 01:02:36;;;;;;;5.55;4.75;;;23.60;87.70;;;;;;5020483;28;20056;-32
2023/09/09 01:05:04;;;;;;;5.32;4.82;;;23.80;79.40;;;;;;5011310;28;20604;-31
2023/09/09 01:07:44;;;;;;;5.90;5.05;;;22.80;71.00;;;;;;5011934;28;20050;-31
2023/09/09 01:10:11;;;;;;;6.05;4.60;;;22.00;86.50;;;;;;5024388;28;20046;-31
2023/09/09 01:12:38;;;;;;;5.53;4.82;;;;;;;;;;5031010;28;20482;-31
2023/09/09 01:15:06;;;;;;;6.50;4.88;;;23.20;87.40;;;;;;5031248;28;20124;-32
2023/09/09 01:17:34;;;;;;;5.60;5.00;;;22.70;70.90;;;;;;5031734;28;20144;-31
2023/09/09 01:20:01;;;;;;;5.57;4.45;;;22.40;86.70;;;;;;5031599;28;20049;-32
2023/09/09 01:22:35;;;;;;;5.07;4.57;;;22.80;86.70;;;;;;5031439;28;20129;-32
2023/09/09 01:25:02;;;;;;;6.03;5.10;;;;;;;;;;5031090;28;20510;-30
2023/09/09 01:27:28;;;;;;;5.85;4.78;;;22.50;86.70;;;;;;5031321;28;20096;-31
2023/09/09 01:29:55;;;;;;;5.68;5.07;;;22.50;86.40;;;;;;5030469;28;20136;-32
2023/09/09 01:32:22;;;;;;;5.32;4.80;;;;;;;;;;5031227;28;20148;-31
2023/09/09 01:34:50;;;;;;;4.75;4.25;;;23.50;86.60;;;;;;5031619;28;20087;-31
2023/09/09 01:37:17;;;;;;;7.50;4.93;;;22.50;86.70;;;;;;5030262;28;20053;-31
2023/09/09 01:39:45;;;;;;;5.88;5.10;;;23.80;87.40;;;;;;5031440;28;20136;-32
2023/09/09 01:42:12;;;;;;;4.95;4.45;;;;;;;;;;5034408;28;20050;-31
2023/09/09 01:44:39;;;;;;;5.53;4.43;;;23.20;77.70;;;;;;5051635;28;20132;-30
2023/09/09 01:47:06;;;;;;;5.32;4.82;;;22.80;86.90;;;;;;5054701;28;20087;-30
2023/09/09 01:49:33;;;;;;;6.07;5.30;;;22.70;82.40;;;;;;5054953;28;20136;-30
2023/09/09 01:51:59;;;;;;;5.10;4.60;;;22.50;86.40;;;;;;5036612;28;20128;-30
2023/09/09 01:54:26;;;;;;;5.07;4.57;;;22.50;86.40;;;;;;5034737;28;20136;-30
2023/09/09 01:56:54;;;;;;;5.70;4.93;;;22.40;76.70;;;;;;5034437;28;20132;-30
2023/09/09 01:59:21;;;;;;;5.53;5.00;;;21.90;74.30;;;;;;5034475;28;20545;-31
2023/09/09 02:01:47;;;;;;;5.78;4.65;;;21.60;86.10;;;;;;5034775;28;20132;-30
2023/09/09 02:04:14;;;;;;;6.75;5.25;;;22.00;86.40;;;;;;5033695;28;20456;-30
2023/09/09 02:06:43;;;;;;;5.18;4.68;;;;;;;;;;5034163;28;20132;-30
2023/09/09 02:09:10;;;;;;;5.88;4.97;;;22.60;87.40;;;;;;5052572;28;20053;-30
2023/09/09 02:11:37;;;;;;;5.10;4.60;;;22.90;74.00;;;;;;5054583;28;20372;-30
2023/09/09 02:14:05;;;;;;;5.25;4.63;;;22.50;77.50;;;;;;5041078;28;20119;-30
2023/09/09 02:16:31;;;;;;;5.00;4.50;;;23.00;79.60;;;;;;5034236;28;20132;-30
2023/09/09 02:18:58;;;;;;;5.57;4.75;;;22.10;86.00;;;;;;5034478;28;20566;-30
2023/09/09 02:21:25;;;;;;;6.13;4.75;;;22.70;87.30;;;;;;5034368;28;20136;-30
2023/09/09 02:23:51;;;;;;;5.60;4.90;;;22.40;75.30;;;;;;5034543;28;20124;-31
2023/09/09 02:26:19;;;;;;;5.35;4.85;;;22.80;76.10;;;;;;5033762;28;20132;-30
2023/09/09 02:28:46;;;;;;;6.15;4.75;;;;;;;;;;5031925;28;20081;-31
2023/09/09 02:31:14;;;;;;;5.47;4.90;;;22.50;86.50;;;;;;5034362;28;20136;-30
2023/09/09 02:33:41;;;;;;;5.43;4.93;;;22.60;86.40;;;;;;5034011;28;20084;-30
2023/09/09 02:36:08;;;;;;;4.93;4.50;;;21.60;76.90;;;;;;5033594;28;20059;-30
2023/09/09 02:38:35;;;;;;;5.60;5.00;;;23.30;87.10;;;;;;5034125;28;20092;-30
2023/09/09 02:41:02;;;;;;;5.07;4.57;;;22.20;78.90;;;;;;5033626;28;20418;-30
2023/09/09 02:43:30;;;;;;;5.50;4.20;;;;;;;;;;5040779;28;20124;-30
2023/09/09 02:45:56;;;;;;;5.78;4.05;;;22.20;82.10;;;;;;5053711;28;20550;-30
2023/09/09 02:48:25;;;;;;;5.28;4.78;;;22.40;86.30;;;;;;5053689;28;20136;-30
2023/09/09 02:50:51;;;;;;;4.75;4.22;;;21.70;86.10;;;;;;5053628;28;20051;-30
2023/09/09 02:53:18;;;;;;;5.13;4.35;;;22.50;86.80;;;;;;5053419;28;20124;-30
2023/09/09 02:55:45;;;;;;;5.28;4.65;;;22.40;82.30;;;;;;5035569;28;20553;-30
2023/09/09 02:58:13;;;;;;;5.18;4.47;;;;;;;;;;5033649;28;20125;-29
2023/09/09 03:00:40;;;;;;;5.15;4.65;;;22.40;86.40;;;;;;5033631;28;20076;-30
2023/09/09 03:03:07;;;;;;;5.68;4.55;;;23.00;83.00;;;;;;5033472;28;20564;-30
2023/09/09 03:05:36;;;;;;;5.72;4.90;;;22.30;86.70;;;;;;5033434;28;20132;-30
2023/09/09 03:08:03;;;;;;;4.80;4.35;;;22.50;70.60;;;;;;5033471;28;20137;-31
2023/09/09 03:10:30;;;;;;;4.78;4.25;;;22.30;83.30;;;;;;5033283;28;20772;-30
2023/09/09 03:12:57;;;;;;;5.45;4.72;;;22.50;70.50;;;;;;5033417;28;20104;-31
2023/09/09 03:15:24;;;;;;;5.45;4.60;;;;;;;;;;5033290;28;20084;-31
2023/09/09 03:17:51;;;;;;;5.50;4.68;;;;;;;;;;5033668;28;20145;-31
2023/09/09 03:20:18;;;;;;;5.50;4.55;;;22.60;87.20;;;;;;5033389;28;20128;-30
2023/09/09 03:22:46;;;;;;;5.28;4.78;;;23.00;87.60;;;;;;5033125;28;20477;-30
2023/09/09 03:25:12;;;;;;;4.55;4.13;;;22.30;86.30;;;;;;5032942;28;20132;-30
2023/09/09 03:27:40;;;;;;;4.93;4.30;;;;;;;;;;5033225;28;20137;-31
2023/09/09 03:30:09;;;;;;;6.22;4.13;;;23.30;87.20;;;;;;5033272;28;20442;-30
2023/09/09 03:32:36;;;;;;;4.90;4.40;;;;;;;;;;5033189;28;20067;-29
2023/09/09 03:35:02;;;;;;;4.82;4.10;;;22.30;74.00;;;;;;5032370;28;20561;-30
2023/09/09 03:37:29;;;;;;;5.60;4.25;;;21.40;85.70;;;;;;5032514;28;20721;-30
2023/09/09 03:39:57;;;;;;;5.15;4.65;;;22.40;76.50;;;;;;5033083;28;20132;-30
2023/09/09 03:42:24;;;;;;;6.32;3.97;;;;;;;;;;5033050;28;20129;-30
2023/09/09 03:44:53;;;;;;;4.75;3.90;;;22.40;86.30;;;;;;5050972;28;20076;-30
2023/09/09 03:47:21;;;;;;;4.57;4.00;;;22.50;86.90;;;;;;5052842;28;20059;-29
2023/09/09 03:49:49;;;;;;;4.60;4.20;;;;;;;;;;5041218;28;20057;-30
2023/09/09 03:52:15;;;;;;;5.53;4.22;;;22.70;86.70;;;;;;5032689;28;20094;-30
2023/09/09 03:54:42;;;;;;;7.07;4.40;;;;;;;;;;5032488;28;20132;-29
2023/09/09 03:57:11;;;;;;;4.72;4.22;;;23.50;86.70;;;;;;5032443;28;20565;-29
2023/09/09 03:59:37;;;;;;;4.75;4.25;;;22.60;86.10;;;;;;5032824;28;20140;-29
2023/09/09 04:02:04;;;;;;;6.57;4.07;;;23.60;86.80;;;;;;5032622;28;20627;-30
2023/09/09 04:04:31;;;;;;;5.03;3.90;;;22.80;77.60;;;;;;5031799;28;20443;-30
2023/09/09 04:06:58;;;;;;;4.72;4.30;;;22.40;86.50;;;;;;5032251;28;20136;-30
2023/09/09 04:09:26;;;;;;;5.18;4.15;;;;;;;;;;5032509;28;20517;-31
2023/09/09 04:11:53;;;;;;;5.28;4.25;;;22.50;81.80;;;;;;5032407;28;20081;-30
2023/09/09 04:14:21;;;;;;;5.22;3.75;;;22.80;86.20;;;;;;5032426;28;20049;-29
2023/09/09 04:16:48;;;;;;;5.13;3.92;;;22.20;85.90;;;;;;5031906;28;20132;-30
2023/09/09 04:19:14;;;;;;;5.30;4.20;;;21.90;85.80;;;;;;5032538;28;20049;-30
2023/09/09 04:21:41;;;;;;;4.53;4.10;;;22.10;80.30;;;;;;5032198;28;20056;-30
2023/09/09 04:24:08;;;;;;;6.47;4.60;;;23.60;86.70;;;;;;5032089;28;20490;-30
2023/09/09 04:26:36;;;;;;;4.30;3.90;;;;;;;;;;5032002;28;20140;-31
2023/09/09 04:29:03;;;;;;;4.90;4.40;;;22.20;85.60;;;;;;5032355;28;20053;-30
2023/09/09 04:31:31;;;;;;;6.28;4.18;;;22.20;85.80;;;;;;5032140;28;20057;-30
2023/09/09 04:33:58;;;;;;;4.70;4.10;;;;;;;;;;5032128;28;20129;-30
2023/09/09 04:36:25;;;;;;;6.03;4.00;;;22.20;85.70;;;;;;5031329;28;20132;-30
2023/09/09 04:38:52;;;;;;;4.60;4.07;;;23.10;78.90;;;;;;5031707;28;20474;-30
2023/09/09 04:41:18;;;;;;;5.30;4.15;;;23.70;86.60;;;;;;5032275;28;20136;-29
2023/09/09 04:43:45;;;;;;;4.50;3.63;;;22.50;86.00;;;;;;5038080;28;20559;-30
2023/09/09 04:46:12;;;;;;;4.90;3.83;;;22.50;72.60;;;;;;5031905;28;20128;-30
2023/09/09 04:48:40;;;;;;;4.30;3.90;;;22.40;70.20;;;;;;5031990;28;20053;-30
2023/09/09 04:51:08;;;;;;;4.55;4.05;;;23.30;86.40;;;;;;5031708;28;20077;-30
2023/09/09 04:53:34;;;;;;;5.90;3.80;;;22.20;86.30;;;;;;5031854;28;20143;-30
2023/09/09 04:56:03;;;;;;;5.28;3.70;;;22.30;86.90;;;;;;5031619;28;20092;-30
2023/09/09 04:58:30;;;;;;;5.55;3.83;;;;;;;;;;5031679;28;20053;-31
2023/09/09 05:00:57;;;;;;;4.20;3.80;;;21.80;86.50;;;;;;5031635;28;20124;-30
2023/09/09 05:03:24;;;;;;;4.45;4.00;;;22.00;86.60;;;;;;5031902;28;20133;-30
2023/09/09 05:05:52;;;;;;;4.78;4.10;;;22.20;72.00;;;;;;5031360;28;20133;-30
2023/09/09 05:08:19;;;;;;;6.20;3.80;;;;;;;;;;5031474;28;20107;-30
2023/09/09 05:10:45;;;;;;;5.38;3.67;;;22.00;83.90;;;;;;5031719;28;20128;-30
2023/09/09 05:13:12;;;;;;;4.35;3.95;;;23.00;87.10;;;;;;5031695;28;20117;-30
2023/09/09 05:15:39;;;;;;;4.38;3.88;;;23.30;80.10;;;;;;5033786;28;20125;-30
2023/09/09 05:18:05;;;;;;;4.15;3.75;;;21.50;85.90;;;;;;5035639;28;20128;-30
2023/09/09 05:20:32;;;;;;;4.20;3.80;;;21.60;86.40;;;;;;5034980;28;20129;-29
2023/09/09 05:23:00;;;;;;;4.95;4.45;;;22.30;75.60;;;;;;5034565;28;20128;-30
2023/09/09 05:25:27;;;;;;;4.55;4.13;;;22.70;74.30;;;;;;5035156;28;20084;-30
2023/09/09 05:27:54;;;;;;;4.25;3.85;;;21.90;85.80;;;;;;5035383;28;20128;-29
2023/09/09 05:30:20;;;;;;;4.88;3.80;;;22.10;86.20;;;;;;5035556;28;20136;-30
2023/09/09 05:32:47;;;;;;;4.50;4.00;;;22.20;82.30;;;;;;5035364;28;20502;-30
2023/09/09 05:35:14;;;;;;;5.25;4.53;;;;;;;;;;5034657;28;20132;-32
2023/09/09 05:37:42;;;;;;;4.70;3.95;;;22.30;70.10;;;;;;5035070;28;20128;-31
2023/09/09 05:40:11;;;;;;;4.40;4.00;;;22.00;71.00;;;;;;5035342;28;20132;-30
2023/09/09 05:42:38;;;;;;;4.47;4.07;;;21.90;80.70;;;;;;5035352;28;20136;-30
2023/09/09 05:45:05;;;;;;;5.40;4.32;;;22.20;86.20;;;;;;5034818;28;20477;-30
2023/09/09 05:47:32;;;;;;;4.57;4.13;;;22.00;86.10;;;;;;5034676;28;20128;-30
2023/09/09 05:49:59;;;;;;;4.88;4.10;;;22.10;86.70;;;;;;5035088;28;20128;-30
2023/09/09 05:52:25;;;;;;;4.85;4.35;;;22.70;87.10;;;;;;5035316;28;20128;-30
2023/09/09 05:54:52;;;;;;;5.32;4.50;;;22.60;81.30;;;;;;5034895;28;20132;-30
2023/09/09 05:57:20;;;;;;;4.47;4.07;;;22.90;87.20;;;;;;5034927;28;20132;-30
2023/09/09 05:59:47;;;;;;;4.40;4.00;;;22.20;86.80;;;;;;5034815;28;20136;-30
2023/09/09 06:02:13;;;;;;;5.95;3.90;;;22.20;86.10;;;;;;5034655;28;20128;-29
2023/09/09 06:04:40;;;;;;;4.55;4.03;;;23.40;73.90;;;;;;5034944;28;20132;-30
2023/09/09 06:07:07;;;;;;;6.35;4.55;;;21.80;86.10;;;;;;5034804;28;20131;-30
2023/09/09 06:09:33;;;;;;;4.53;4.13;;;22.80;86.50;;;;;;5034847;28;20136;-30
2023/09/09 06:12:00;;;;;;;5.63;5.13;;;;;;;;;;5034582;28;20132;-30
2023/09/09 06:14:28;;;;;;;5.53;3.90;;;22.20;70.10;;;;;;5034604;28;20128;-30
2023/09/09 06:16:55;;;;;;;4.40;4.00;;;21.90;86.50;;;;;;5034318;28;20136;-30
2023/09/09 06:19:22;;;;;;;6.13;4.45;;;22.30;86.20;;;;;;5034619;28;20128;-29
2023/09/09 06:21:48;;;;;;;5.07;4.07;;;22.00;73.10;;;;;;5034649;28;20136;-30
2023/09/09 06:24:15;;;;;;;5.90;4.57;;;22.20;86.90;;;;;;5034360;28;20145;-29
2023/09/09 06:26:43;;;;;;;4.28;3.88;;;22.30;86.20;;;;;;5035992;28;20135;-30
2023/09/09 06:29:09;;;;;;;4.88;4.38;;;22.90;86.50;;;;;;5033894;28;20080;-30
2023/09/09 06:31:37;;;;;;;5.30;4.80;;;22.30;86.20;;;;;;5033954;28;20129;-30
2023/09/09 06:34:04;;;;;;;7.88;4.93;;;21.90;86.00;;;;;;5023091;28;20133;-30
2023/09/09 06:36:31;;;;;;;6.05;5.22;;;;;;;;;;5019461;28;20055;-30
2023/09/09 06:38:58;;;;;;;8.10;5.82;;;22.10;87.10;;;;;;5016321;28;20233;-30
2023/09/09 06:41:25;;;;;;;6.72;5.70;;;;;;;;;;5014469;28;20562;-31
2023/09/09 06:43:52;;;;;;;6.53;5.82;;;22.50;83.10;;;;;;5035571;28;20552;-32
2023/09/09 06:46:19;;;;;;;9.13;6.20;;;22.60;86.90;;;;;;5023304;28;20128;-31
2023/09/09 06:48:47;;;;;;;7.07;5.70;;;21.70;72.30;;;;;;5014344;28;20054;-32
2023/09/09 06:51:15;;;;;;;6.95;5.93;;;;;;;;;;5032844;28;20124;-32
2023/09/09 06:53:42;;;;;;;7.45;5.97;;;21.20;86.00;;;;;;5034146;28;20049;-32
2023/09/09 06:56:09;;;;;;;6.75;6.03;;;;;;;;;;5033452;28;20124;-32
2023/09/09 06:58:36;;;;;;;6.88;6.18;;;21.80;85.70;;;;;;5033180;28;20132;-32
2023/09/09 07:01:03;;;;;;;7.50;6.00;;;21.70;86.30;;;;;;5033294;28;20145;-32
2023/09/09 07:03:30;;;;;;;6.97;6.28;;;21.50;86.10;;;;;;5033710;28;20053;-31
2023/09/09 07:06:01;;;;;;;8.82;6.40;;;22.30;86.50;;;;;;5033203;28;20120;-30
2023/09/09 07:08:27;;;;;;;6.57;5.90;;;21.20;85.90;;;;;;5033570;28;20049;-30
2023/09/09 07:10:56;;;;;;;7.07;6.38;;;22.00;72.20;;;;;;5033121;28;20128;-30
2023/09/09 07:13:23;;;;;;;7.53;6.20;;;21.80;85.90;;;;;;5033161;28;20068;-29
2023/09/09 07:15:51;;;;;;;7.90;6.45;;;22.50;87.10;;;;;;5033039;28;20423;-30
2023/09/09 07:18:18;;;;;;;6.80;6.10;;;;;;;;;;5033427;28;20495;-31
2023/09/09 07:20:46;;;;;;;11.00;5.75;;;22.70;86.40;;;;;;5033347;28;20045;-30
2023/09/09 07:23:14;;;;;;;7.60;6.07;;;22.20;70.30;;;;;;5033113;28;20056;-30
2023/09/09 07:25:42;;;;;;;6.30;5.70;;;21.30;86.00;;;;;;5033001;28;20124;-30
2023/09/09 07:28:09;;;;;;;7.97;5.72;;;;;;;;;;5032992;28;20053;-29
2023/09/09 07:30:36;;;;;;;7.38;5.68;;;22.30;86.90;;;;;;5032922;28;20136;-29
2023/09/09 07:33:03;;;;;;;7.72;6.20;;;;;;;;;;5032851;28;20497;-30
2023/09/09 07:35:29;;;;;;;6.15;5.55;;;21.20;86.00;;;;;;5032679;28;20095;-29
2023/09/09 07:37:56;;;;;;;7.07;5.88;;;22.80;87.30;;;;;;5032132;28;20209;-29
2023/09/09 07:40:24;;;;;;;6.78;5.68;;;21.40;70.70;;;;;;5032708;28;20081;-30
2023/09/09 07:42:53;;;;;;;6.68;5.93;;;;;;;;;;5018604;28;20133;-30
2023/09/09 07:45:20;;;;;;;5.88;5.25;;;;;;;;;;5048353;28;20072;-29
2023/09/09 07:47:47;;;;;;;7.05;5.45;;;22.20;87.40;;;;;;5032972;28;20087;-29
2023/09/09 07:50:13;;;;;;;7.38;5.18;;;22.00;83.90;;;;;;5032773;28;20050;-29
2023/09/09 07:52:41;;;;;;;6.65;5.35;;;;;;;;;;5032935;28;20242;-29
2023/09/09 07:55:08;;;;;;;6.63;5.60;;;23.30;71.60;;;;;;5032754;28;20474;-30
2023/09/09 07:57:36;;;;;;;6.90;5.50;;;22.30;70.70;;;;;;5027603;28;20594;-30
2023/09/09 08:00:07;;;;;;;6.82;5.60;;;22.60;87.50;;;;;;5020739;28;20116;-29
2023/09/09 08:02:34;;;;;;;5.72;5.13;;;22.80;76.50;;;;;;5029472;28;20421;-30
2023/09/09 08:05:01;;;;;;;5.80;5.00;;;;;;;;;;5031932;28;20049;-29
2023/09/09 08:07:28;;;;;;;6.35;5.10;;;;;;;;;;5031949;28;20140;-30
2023/09/09 08:09:55;;;;;;;6.68;5.35;;;21.80;87.00;;;;;;5032467;28;20140;-29
2023/09/09 08:12:21;;;;;;;5.47;4.97;;;22.00;87.30;;;;;;5031996;28;20696;-29
2023/09/09 08:14:49;;;;;;;5.32;4.82;;;22.40;80.70;;;;;;5032357;28;20128;-29
2023/09/09 08:17:16;;;;;;;5.40;4.90;;;22.40;78.80;;;;;;5031101;28;20550;-29
2023/09/09 08:19:43;;;;;;;6.15;5.22;;;22.70;86.60;;;;;;5018274;28;20125;-30
2023/09/09 08:22:09;;;;;;;5.13;4.63;;;22.10;86.60;;;;;;5022983;28;20133;-29
2023/09/09 08:24:36;;;;;;;6.15;5.20;;;;;;;;;;5013502;28;20129;-29
2023/09/09 08:27:03;;;;;;;5.82;5.22;;;22.90;87.10;;;;;;5027654;28;20140;-29
2023/09/09 08:29:30;;;;;;;7.07;5.05;;;;;;;;;;5031300;28;20140;-30
2023/09/09 08:31:59;;;;;;;5.53;4.95;;;22.50;87.60;;;;;;5030996;28;20140;-29
2023/09/09 08:34:26;;;;;;;9.10;5.25;;;;;;;;;;5031541;28;20061;-29
2023/09/09 08:36:52;;;;;;;7.20;5.25;;;21.50;72.40;;;;;;5030581;28;20136;-29
2023/09/09 08:39:21;;;;;;;6.10;5.07;;;22.40;86.60;;;;;;5031662;28;20141;-29
2023/09/09 08:41:52;;;;;;;7.70;5.45;;;22.20;86.50;;;;;;5030823;28;20045;-30
2023/09/09 08:44:25;;;;;;;5.80;4.75;;;22.30;70.70;;;;;;5028750;28;20136;-30
2023/09/09 08:46:52;;;;;;;6.93;5.38;;;22.10;87.50;;;;;;5031858;28;20136;-31
2023/09/09 08:49:21;;;;;;;8.70;5.50;;;21.30;73.40;;;;;;5014298;28;20132;-31
2023/09/09 08:51:51;;;;;;;8.80;5.32;;;22.70;87.00;;;;;;5012281;28;20125;-31
2023/09/09 08:54:18;;;;;;;6.15;4.88;;;22.20;83.40;;;;;;5012156;28;20589;-31
2023/09/09 08:56:45;;;;;;;6.28;5.22;;;;;;;;;;5011634;28;20082;-30
2023/09/09 08:59:12;;;;;;;7.03;5.32;;;21.80;86.20;;;;;;5011976;28;20128;-31
2023/09/09 09:01:39;;;;;;;6.28;5.20;;;;;;;;;;5030592;28;20132;-30
2023/09/09 09:04:06;;;;;;;7.18;5.10;;;22.10;86.50;;;;;;5031851;28;20565;-32
2023/09/09 09:06:34;;;;;;;8.20;5.32;;;22.10;86.70;;;;;;5031649;28;20148;-31
2023/09/09 09:09:01;;;;;;;6.60;5.13;;;22.70;86.90;;;;;;5031773;28;20132;-31
2023/09/09 09:11:27;;;;;;;6.28;5.28;;;22.40;73.10;;;;;;5031619;28;20128;-31
2023/09/09 09:13:55;;;;;;;6.95;4.90;;;22.70;87.70;;;;;;5030901;28;20052;-31
2023/09/09 09:16:22;;;;;;;6.45;5.32;;;22.40;70.80;;;;;;5030861;28;20554;-31
2023/09/09 09:18:48;;;;;;;5.75;5.13;;;22.10;87.50;;;;;;5031872;28;20132;-29
2023/09/09 09:21:15;;;;;;;7.05;5.20;;;22.40;87.40;;;;;;5030833;28;20132;-29
2023/09/09 09:23:44;;;;;;;5.95;5.03;;;21.50;70.90;;;;;;5031495;28;20132;-30
2023/09/09 09:26:26;;;;;;;6.68;5.30;;;22.30;70.80;;;;;;5030994;28;20041;-31
2023/09/09 09:28:52;;;;;;;7.10;5.40;;;22.00;86.50;;;;;;5028853;28;20132;-30
2023/09/09 09:31:20;;;;;;;6.95;4.70;;;21.70;86.40;;;;;;5031065;28;20087;-29
2023/09/09 09:33:47;;;;;;;6.35;4.80;;;23.00;87.50;;;;;;5031251;28;20049;-29
2023/09/09 09:36:17;;;;;;;6.78;4.88;;;22.40;86.70;;;;;;5029903;28;20402;-29
2023/09/09 09:38:45;;;;;;;5.63;5.03;;;22.60;87.50;;;;;;5031124;28;20476;-29
2023/09/09 09:41:11;;;;;;;5.80;4.63;;;22.30;86.90;;;;;;5031599;28;20077;-29
2023/09/09 09:43:38;;;;;;;6.45;5.03;;;22.10;74.80;;;;;;5039212;28;20402;-29
2023/09/09 09:46:13;;;;;;;6.70;4.75;;;22.00;76.90;;;;;;5051084;28;20132;-29
2023/09/09 09:48:40;;;;;;;8.45;4.82;;;;;;;;;;5031927;28;20068;-29
2023/09/09 09:51:07;;;;;;;7.47;4.72;;;22.50;77.80;;;;;;5031268;28;20140;-29
2023/09/09 09:53:37;;;;;;;6.18;4.72;;;22.40;86.80;;;;;;5030491;28;20484;-29
2023/09/09 09:56:05;;;;;;;7.85;5.22;;;22.10;71.80;;;;;;5030806;28;20052;-30
2023/09/09 09:58:32;;;;;;;7.90;4.57;;;22.20;86.60;;;;;;5031233;28;20137;-30
2023/09/09 10:00:59;;;;;;;7.70;4.97;;;22.40;72.80;;;;;;5031102;28;20129;-30
2023/09/09 10:03:26;;;;;;;7.38;4.78;;;;;;;;;;5034076;28;20126;-30
2023/09/09 10:05:54;;;;;;;5.82;4.72;;;22.40;70.70;;;;;;5018113;28;20486;-29
2023/09/09 10:08:28;;;;;;;5.97;4.50;;;22.40;70.70;;;;;;5034500;28;20050;-30
2023/09/09 10:10:59;;;;;;;5.72;4.30;;;22.40;70.70;;;;;;5034780;28;20472;-29
2023/09/09 10:13:31;;;;;;;5.68;4.93;;;22.40;70.70;;;;;;5034662;28;20140;-30
2023/09/09 10:15:58;;;;;;;6.80;4.68;;;;;;;;;;5033744;28;20120;-29
2023/09/09 10:18:25;;;;;;;5.93;4.78;;;22.00;87.00;;;;;;5034239;28;20140;-29
2023/09/09 10:20:52;;;;;;;5.20;4.32;;;22.40;70.60;;;;;;5034527;28;20136;-30
2023/09/09 10:23:19;;;;;;;5.43;4.50;;;22.50;86.60;;;;;;5034282;28;20049;-29
2023/09/09 10:25:47;;;;;;;5.63;4.63;;;22.00;75.40;;;;;;5033986;28;20140;-29
2023/09/09 10:28:13;;;;;;;7.13;4.40;;;22.50;86.70;;;;;;5033499;28;20571;-29
2023/09/09 10:30:41;;;;;;;4.60;4.15;;;22.90;80.50;;;;;;5034067;28;20137;-29
2023/09/09 10:33:08;;;;;;;6.30;4.45;;;22.50;78.60;;;;;;5033082;28;20167;-29
2023/09/09 10:35:35;;;;;;;6.13;4.20;;;22.40;86.80;;;;;;5014301;28;20060;-29
2023/09/09 10:38:02;;;;;;;5.10;4.43;;;23.40;87.00;;;;;;5031831;28;20480;-29
2023/09/09 10:40:29;;;;;;;5.43;4.80;;;22.60;86.60;;;;;;5034171;28;20080;-29
2023/09/09 10:42:55;;;;;;;6.78;4.75;;;22.10;86.20;;;;;;5036465;28;20128;-29
2023/09/09 10:45:23;;;;;;;6.30;4.60;;;22.50;70.60;;;;;;5052143;28;20080;-32
2023/09/09 10:47:58;;;;;;;5.35;4.00;;;22.30;86.40;;;;;;5033799;28;20129;-29
2023/09/09 10:50:25;;;;;;;;;;;22.50;71.00;;;;;;5034583;28;20107;-30
2023/09/09 10:52:53;;;;;;;5.15;4.60;;;23.70;87.30;;;;;;5034282;28;20011;-29
2023/09/09 10:55:27;;;;;;;5.20;4.30;;;22.40;70.50;;;;;;5033660;28;20045;-32
2023/09/09 10:57:57;;;;;;;6.95;4.95;;;22.40;80.30;;;;;;5033588;28;20415;-30
2023/09/09 11:00:36;;;;;;;5.50;4.00;;;22.50;70.50;;;;;;5020348;28;20129;-31
2023/09/09 11:03:10;;;;;;;4.53;4.10;;;22.70;75.80;;;;;;5033714;28;20084;-31
2023/09/09 11:05:58;;;;;;;6.75;4.47;;;22.50;70.40;;;;;;5033831;28;20052;-31
2023/09/09 11:08:32;;;;;;;4.57;4.07;;;22.20;77.90;;;;;;5033451;28;20103;-31
2023/09/09 11:11:13;;;;;;;6.53;4.35;;;22.60;70.50;;;;;;5033368;28;20045;-31
2023/09/09 11:13:41;;;;;;;5.63;4.28;;;22.20;86.20;;;;;;5032917;28;20056;-31
2023/09/09 11:16:08;;;;;;;5.20;3.75;;;22.90;86.40;;;;;;5033241;28;20422;-32
2023/09/09 11:18:36;;;;;;;4.72;4.22;;;22.80;86.40;;;;;;5033382;28;20136;-31
2023/09/09 11:21:04;;;;;;;4.80;4.10;;;22.60;82.00;;;;;;5032971;28;20136;-32
2023/09/09 11:23:31;;;;;;;4.90;4.10;;;;;;;;;;5033314;28;20068;-31
2023/09/09 11:25:58;;;;;;;6.07;4.55;;;22.50;78.40;;;;;;5032606;28;20049;-31
2023/09/09 11:28:25;;;;;;;6.20;4.03;;;;;;;;;;5032231;28;20126;-31
2023/09/09 11:30:52;;;;;;;5.00;4.40;;;;;;;;;;5033023;28;20561;-31
2023/09/09 11:33:24;;;;;;;5.43;4.20;;;22.30;86.40;;;;;;5032727;28;20463;-32
2023/09/09 11:35:52;;;;;;;5.30;4.20;;;23.00;80.80;;;;;;5031958;28;20113;-31
2023/09/09 11:38:18;;;;;;;4.28;3.88;;;23.70;86.60;;;;;;5032412;28;20128;-31
2023/09/09 11:40:45;;;;;;;5.72;4.30;;;22.60;81.40;;;;;;5033042;28;20045;-32
2023/09/09 11:43:15;;;;;;;5.03;4.07;;;22.70;75.30;;;;;;5032956;28;20049;-31
2023/09/09 11:45:42;;;;;;;6.30;4.43;;;;;;;;;;5032846;28;20140;-32
2023/09/09 11:48:13;;;;;;;4.72;4.22;;;22.80;86.00;;;;;;5032338;28;20489;-31
2023/09/09 11:50:41;;;;;;;4.60;4.13;;;;;;;;;;5032867;28;20108;-31
2023/09/09 11:53:11;;;;;;;4.38;3.97;;;22.20;85.50;;;;;;5032674;28;20080;-31
2023/09/09 11:55:38;;;;;;;5.43;4.30;;;22.50;86.10;;;;;;5032639;28;20091;-31
2023/09/09 11:58:05;;;;;;;5.22;4.18;;;;;;;;;;5032381;28;20049;-30
2023/09/09 12:00:32;;;;;;;5.03;4.35;;;;;;;;;;5031901;28;20125;-31
2023/09/09 12:02:59;;;;;;;5.15;4.30;;;;;;;;;;5032370;28;20471;-31
2023/09/09 12:05:28;;;;;;;4.78;4.22;;;22.80;86.00;;;;;;5032200;28;20081;-31
2023/09/09 12:07:55;;;;;;;4.35;3.95;;;22.30;84.00;;;;;;5032249;28;20128;-29
2023/09/09 12:10:23;;;;;;;4.90;4.30;;;22.50;85.80;;;;;;5031957;28;20502;-29
2023/09/09 12:12:50;;;;;;;6.10;4.65;;;22.90;85.70;;;;;;5032458;28;20128;-29
2023/09/09 12:15:17;;;;;;;4.38;3.97;;;;;;;;;;5031932;28;20215;-31
2023/09/09 12:17:44;;;;;;;6.15;4.35;;;22.80;85.90;;;;;;5032443;28;20128;-29
2023/09/09 12:20:11;;;;;;;4.60;3.88;;;22.80;86.40;;;;;;5031471;28;20128;-29
2023/09/09 12:22:43;;;;;;;4.45;4.00;;;24.00;86.30;;;;;;5031963;28;20140;-30
2023/09/09 12:25:29;;;;;;;4.18;3.75;;;23.30;78.10;;;;;;5030952;28;20080;-30
2023/09/09 12:27:56;;;;;;;5.35;4.43;;;22.60;86.20;;;;;;5031646;28;20065;-29
2023/09/09 12:30:33;;;;;;;4.38;3.67;;;23.20;85.40;;;;;;5031318;28;20140;-29
2023/09/09 12:33:07;;;;;;;5.43;4.07;;;22.70;73.70;;;;;;5030016;28;20125;-30
2023/09/09 12:35:34;;;;;;;5.03;4.15;;;22.90;70.00;;;;;;5031562;28;20124;-31
2023/09/09 12:38:01;;;;;;;4.28;3.88;;;;;;;;;;5030134;28;20045;-29
2023/09/09 12:40:29;;;;;;;4.20;3.80;;;22.90;84.60;;;;;;5031967;28;20136;-29
2023/09/09 12:42:56;;;;;;;4.63;3.90;;;23.10;82.40;;;;;;5033991;28;20557;-29
2023/09/09 12:45:25;;;;;;;4.70;3.92;;;21.90;85.10;;;;;;5031410;28;20512;-29
2023/09/09 12:47:52;;;;;;;5.50;4.03;;;22.80;85.50;;;;;;5031316;28;20038;-29
2023/09/09 12:50:19;;;;;;;4.00;3.60;;;;;;;;;;5031643;28;20383;-30
2023/09/09 12:52:46;;;;;;;4.45;4.05;;;22.50;86.10;;;;;;5031604;28;20168;-29
2023/09/09 12:55:14;;;;;;;4.40;4.00;;;23.00;77.40;;;;;;5031967;28;20136;-31
2023/09/09 12:57:42;;;;;;;5.57;4.10;;;23.10;82.70;;;;;;5030920;28;20474;-29
2023/09/09 13:00:10;;;;;;;5.18;4.30;;;22.30;79.60;;;;;;5031246;28;20128;-29
2023/09/09 13:02:36;;;;;;;4.78;4.20;;;23.80;77.70;;;;;;5031245;28;20054;-32
2023/09/09 13:05:03;;;;;;;4.80;4.13;;;22.40;85.00;;;;;;5022551;28;20140;-31
2023/09/09 13:07:30;;;;;;;4.88;3.95;;;;;;;;;;5024341;28;20125;-31
2023/09/09 13:09:57;;;;;;;4.30;3.80;;;23.00;85.10;;;;;;5031178;28;20125;-31
2023/09/09 13:12:24;;;;;;;4.45;3.75;;;;;;;;;;5030148;28;20148;-31